Howard, South Dakota
Current Conditions -  °F | °C
As of 5:35 PM on Tuesday 25 Nov 2014 (Local Time) from KMDS Reporting Station
Overcast Overcast  
Wind Chill: 23°   Ceiling: 6000
Heat Index: 32°   Visibility: 10mi
Dew Point: 25°   Wind: 13mph
Humidity: 75%   Direction: 160°SSE
Pressure: 29.84"   Gusts: NA
Location:  44.01°N, 97.53°W
Report Text: KMDS 252335Z AUTO 16011KT 10SM OVC060 00/M04 A2984 RMK AO2
Loading
Personal Weather Stations






























Interactive Weather Map New forecast layout! Learn more

10-Day Weather Forecast

Advertisements
Track Severe Weather on mobile